Time;durP1;ratioP1;P1;durP2;ratioP2;P2;SDS_P1;SDS_P2;PMS_P1;PMS_P2;Temp;Humidity;BMP_temperature;BMP_pressure;BME280_temperature;BME280_humidity;BME280_pressure;Samples;Min_cycle;Max_cycle;Signal;HPM_P1;HPM_P2
2023/03/05 00:01:00;;;;;;;;;;;;;;;;;;5044287;28;20110;-83
2023/03/05 00:03:25;;;;;;;;;;;;;;;;;;5046686;28;20007;-81
2023/03/05 00:05:51;;;;;;;;;;;;;;;;;;5052447;28;20162;-82
2023/03/05 00:08:16;;;;;;;;;;;;;;;;;;5043198;28;19920;-83
2023/03/05 00:10:41;;;;;;;;;;;;;;;;;;5046974;28;19959;-82
2023/03/05 00:13:06;;;;;;;;;;;;;;;;;;5040975;28;19931;-82
2023/03/05 00:15:32;;;;;;;;;;;;;;;;;;5054020;28;19917;-82
2023/03/05 00:17:57;;;;;;;;;;;;;;;;;;5047062;28;20021;-80
2023/03/05 00:20:22;;;;;;;;;;;;;;;;;;5046178;28;20285;-81
2023/03/05 00:22:47;;;;;;;;;;;;;;;;;;5047674;28;19992;-81
2023/03/05 00:25:12;;;;;;;;;;;;;;;;;;5046788;28;19948;-81
2023/03/05 00:27:37;;;;;;;;;;;;;;;;;;5046040;28;19917;-82
2023/03/05 00:30:02;;;;;;;;;;;;;;;;;;5074939;28;19955;-80
2023/03/05 00:32:28;;;;;;;;;;;;;;;;;;5060001;28;19956;-82
2023/03/05 00:34:53;;;;;;;;;;;;;;;;;;5049894;28;19920;-80
2023/03/05 00:37:18;;;;;;;;;;;;;;;;;;5047473;28;19913;-79
2023/03/05 00:39:43;;;;;;;;;;;;;;;;;;5047399;28;19917;-82
2023/03/05 00:42:08;;;;;;;;;;;;;;;;;;5055284;28;19959;-82
2023/03/05 00:44:34;;;;;;;;;;;;;;;;;;5040727;28;19959;-89
2023/03/05 00:46:59;;;;;;;;;;;;;;;;;;5046994;28;19920;-83
2023/03/05 00:49:24;;;;;;;;;;;;;;;;;;5043071;28;19913;-83
2023/03/05 00:51:49;;;;;;;;;;;;;;;;;;5076618;28;20393;-84
2023/03/05 00:54:14;;;;;;;;;;;;;;;;;;5043871;28;20020;-84
2023/03/05 00:56:40;;;;;;;;;;;;;;;;;;5046801;28;20397;-83
2023/03/05 00:59:05;;;;;;;;;;;;;;;;;;5048077;28;20365;-83
2023/03/05 01:01:30;;;;;;;;;;;;;;;;;;5046432;28;19920;-83
2023/03/05 01:03:56;;;;;;;;;;;;;;;;;;5076459;28;19920;-85
2023/03/05 01:06:21;;;;;;;;;;;;;;;;;;5046116;28;19913;-88
2023/03/05 01:08:46;;;;;;;;;;;;;;;;;;5044112;28;19982;-87
2023/03/05 01:11:11;;;;;;;;;;;;;;;;;;5048082;28;19921;-87
2023/03/05 01:13:36;;;;;;;;;;;;;;;;;;5041966;28;21427;-85
2023/03/05 01:16:02;;;;;;;;;;;;;;;;;;5057308;28;19934;-84
2023/03/05 01:18:27;;;;;;;;;;;;;;;;;;5045109;28;19946;-83
2023/03/05 01:20:52;;;;;;;;;;;;;;;;;;5048826;28;19917;-82
2023/03/05 01:23:17;;;;;;;;;;;;;;;;;;5044874;28;20096;-83
2023/03/05 01:25:42;;;;;;;;;;;;;;;;;;5076595;28;19913;-84
2023/03/05 01:28:07;;;;;;;;;;;;;;;;;;5055656;28;19963;-84
2023/03/05 01:30:32;;;;;;;;;;;;;;;;;;5051586;28;19914;-84
2023/03/05 01:32:58;;;;;;;;;;;;;;;;;;5049298;28;19917;-84
2023/03/05 01:35:23;;;;;;;;;;;;;;;;;;5057351;28;19913;-85
2023/03/05 01:37:48;;;;;;;;;;;;;;;;;;5048764;28;19917;-86
2023/03/05 01:40:13;;;;;;;;;;;;;;;;;;5047454;28;19917;-84
2023/03/05 01:42:38;;;;;;;;;;;;;;;;;;5043762;28;19956;-85
2023/03/05 01:45:04;;;;;;;;;;;;;;;;;;5045931;28;19921;-85
2023/03/05 01:47:29;;;;;;;;;;;;;;;;;;5046928;28;19913;-85
2023/03/05 01:49:54;;;;;;;;;;;;;;;;;;5044226;28;19917;-84
2023/03/05 01:52:19;;;;;;;;;;;;;;;;;;5045721;28;19917;-84
2023/03/05 01:54:44;;;;;;;;;;;;;;;;;;5048809;28;20292;-84
2023/03/05 01:57:10;;;;;;;;;;;;;;;;;;5043047;28;20314;-85
2023/03/05 01:59:35;;;;;;;;;;;;;;;;;;5078752;28;20293;-84
2023/03/05 02:02:00;;;;;;;;;;;;;;;;;;5046247;28;20011;-85
2023/03/05 02:04:25;;;;;;;;;;;;;;;;;;5059617;28;19916;-84
2023/03/05 02:06:50;;;;;;;;;;;;;;;;;;5045587;28;19955;-84
2023/03/05 02:09:15;;;;;;;;;;;;;;;;;;5045295;28;19913;-85
2023/03/05 02:11:41;;;;;;;;;;;;;;;;;;5061347;28;19920;-85
2023/03/05 02:14:06;;;;;;;;;;;;;;;;;;5048671;28;19912;-84
2023/03/05 02:16:35;;;;;;;;;;;;;;;;;;5048592;28;19921;-85
2023/03/05 02:19:00;;;;;;;;;;;;;;;;;;5065596;28;19913;-81
2023/03/05 02:21:26;;;;;;;;;;;;;;;;;;5044915;28;19920;-85
2023/03/05 02:23:52;;;;;;;;;;;;;;;;;;5049176;28;19992;-86
2023/03/05 02:26:17;;;;;;;;;;;;;;;;;;5060040;28;20380;-85
2023/03/05 02:28:42;;;;;;;;;;;;;;;;;;5050343;28;19959;-82
2023/03/05 02:31:07;;;;;;;;;;;;;;;;;;5041051;28;19947;-84
2023/03/05 02:33:32;;;;;;;;;;;;;;;;;;5048692;28;19912;-82
2023/03/05 02:35:58;;;;;;;;;;;;;;;;;;5048298;28;19923;-85
2023/03/05 02:38:23;;;;;;;;;;;;;;;;;;5039711;28;20239;-82
2023/03/05 02:40:48;;;;;;;;;;;;;;;;;;5052636;28;19928;-83
2023/03/05 02:43:13;;;;;;;;;;;;;;;;;;5050772;28;19974;-83
2023/03/05 02:45:38;;;;;;;;;;;;;;;;;;5068686;28;20494;-84
2023/03/05 02:48:03;;;;;;;;;;;;;;;;;;5050277;28;20377;-83
2023/03/05 02:50:29;;;;;;;;;;;;;;;;;;5051919;28;20000;-83
2023/03/05 02:52:54;;;;;;;;;;;;;;;;;;5055806;28;19921;-83
2023/03/05 02:55:19;;;;;;;;;;;;;;;;;;5053618;28;19944;-84
2023/03/05 02:57:44;;;;;;;;;;;;;;;;;;5050359;28;20183;-84
2023/03/05 03:00:09;;;;;;;;;;;;;;;;;;5080496;28;20367;-84
2023/03/05 03:02:34;;;;;;;;;;;;;;;;;;5051322;28;19912;-84
2023/03/05 03:04:59;;;;;;;;;;;;;;;;;;5048872;28;19952;-84
2023/03/05 03:07:25;;;;;;;;;;;;;;;;;;5064202;28;20297;-84
2023/03/05 03:09:50;;;;;;;;;;;;;;;;;;5061706;28;19913;-83
2023/03/05 03:12:15;;;;;;;;;;;;;;;;;;5051192;28;19969;-85
2023/03/05 03:14:41;;;;;;;;;;;;;;;;;;5060384;28;19912;-84
2023/03/05 03:17:06;;;;;;;;;;;;;;;;;;5056638;28;19921;-84
2023/03/05 03:19:31;;;;;;;;;;;;;;;;;;5071788;28;20443;-84
2023/03/05 03:21:56;;;;;;;;;;;;;;;;;;5053150;28;20281;-84
2023/03/05 03:24:21;;;;;;;;;;;;;;;;;;5064042;28;20467;-85
2023/03/05 03:26:47;;;;;;;;;;;;;;;;;;5056710;28;19913;-84
2023/03/05 03:29:12;;;;;;;;;;;;;;;;;;5082153;28;20053;-85
2023/03/05 03:31:39;;;;;;;;;;;;;;;;;;5051616;28;20353;-85
2023/03/05 03:34:05;;;;;;;;;;;;;;;;;;5052668;28;19943;-85
2023/03/05 03:36:30;;;;;;;;;;;;;;;;;;5052380;28;20373;-85
2023/03/05 03:38:56;;;;;;;;;;;;;;;;;;5052782;28;19912;-85
2023/03/05 03:41:21;;;;;;;;;;;;;;;;;;5051891;28;19923;-86
2023/03/05 03:43:46;;;;;;;;;;;;;;;;;;5048832;28;20280;-84
2023/03/05 03:46:11;;;;;;;;;;;;;;;;;;5065526;28;20463;-84
2023/03/05 03:48:36;;;;;;;;;;;;;;;;;;5052464;28;20344;-83
2023/03/05 03:51:02;;;;;;;;;;;;;;;;;;5053001;28;19917;-84
2023/03/05 03:53:27;;;;;;;;;;;;;;;;;;5072510;28;19913;-83
2023/03/05 03:55:52;;;;;;;;;;;;;;;;;;5050383;28;19939;-83
2023/03/05 03:58:17;;;;;;;;;;;;;;;;;;5052865;28;19998;-84
2023/03/05 04:00:42;;;;;;;;;;;;;;;;;;5050333;28;19920;-83
2023/03/05 04:03:07;;;;;;;;;;;;;;;;;;5051738;28;20036;-85
2023/03/05 04:05:33;;;;;;;;;;;;;;;;;;5076523;28;20031;-83
2023/03/05 04:07:58;;;;;;;;;;;;;;;;;;5063557;28;19917;-84
2023/03/05 04:10:23;;;;;;;;;;;;;;;;;;5051591;28;19967;-84
2023/03/05 04:12:49;;;;;;;;;;;;;;;;;;5050533;28;19989;-85
2023/03/05 04:15:14;;;;;;;;;;;;;;;;;;5049340;28;19921;-84
2023/03/05 04:17:39;;;;;;;;;;;;;;;;;;5051536;28;19977;-84
2023/03/05 04:20:04;;;;;;;;;;;;;;;;;;5077945;28;19925;-85
2023/03/05 04:22:29;;;;;;;;;;;;;;;;;;5051440;28;19913;-85
2023/03/05 04:24:54;;;;;;;;;;;;;;;;;;5050499;28;19913;-85
2023/03/05 04:27:20;;;;;;;;;;;;;;;;;;5052579;28;20387;-84
2023/03/05 04:29:45;;;;;;;;;;;;;;;;;;5050546;28;19927;-84
2023/03/05 04:32:10;;;;;;;;;;;;;;;;;;5050225;28;19917;-84
2023/03/05 04:34:35;;;;;;;;;;;;;;;;;;5056087;28;20384;-83
2023/03/05 04:37:00;;;;;;;;;;;;;;;;;;5050723;28;20333;-84
2023/03/05 04:39:26;;;;;;;;;;;;;;;;;;5051555;28;19992;-84
2023/03/05 04:41:51;;;;;;;;;;;;;;;;;;5049731;28;19913;-85
2023/03/05 04:44:16;;;;;;;;;;;;;;;;;;5051824;28;19912;-85
2023/03/05 04:46:41;;;;;;;;;;;;;;;;;;5050977;28;20332;-86
2023/03/05 04:49:07;;;;;;;;;;;;;;;;;;5050873;28;20365;-83
2023/03/05 04:51:32;;;;;;;;;;;;;;;;;;5050632;28;19917;-85
2023/03/05 04:53:57;;;;;;;;;;;;;;;;;;5052430;28;19938;-84
2023/03/05 04:56:22;;;;;;;;;;;;;;;;;;5049410;28;20008;-83
2023/03/05 04:58:47;;;;;;;;;;;;;;;;;;5084656;28;20253;-84
2023/03/05 05:01:12;;;;;;;;;;;;;;;;;;5080813;28;19927;-82
2023/03/05 05:03:37;;;;;;;;;;;;;;;;;;5050174;28;19920;-85
2023/03/05 05:06:03;;;;;;;;;;;;;;;;;;5080349;28;20388;-83
2023/03/05 05:08:28;;;;;;;;;;;;;;;;;;5051356;28;20384;-84
2023/03/05 05:10:53;;;;;;;;;;;;;;;;;;5048831;28;20349;-85
2023/03/05 05:13:18;;;;;;;;;;;;;;;;;;5048139;28;19929;-85
2023/03/05 05:15:43;;;;;;;;;;;;;;;;;;5066988;28;20002;-84
2023/03/05 05:18:08;;;;;;;;;;;;;;;;;;5051359;28;19963;-85
2023/03/05 05:20:33;;;;;;;;;;;;;;;;;;5048566;28;19921;-84
2023/03/05 05:22:58;;;;;;;;;;;;;;;;;;5051521;28;20011;-84
2023/03/05 05:25:24;;;;;;;;;;;;;;;;;;5049268;28;19915;-83
2023/03/05 05:27:49;;;;;;;;;;;;;;;;;;5048721;28;19920;-84
2023/03/05 05:30:14;;;;;;;;;;;;;;;;;;5047584;28;19917;-84
2023/03/05 05:32:39;;;;;;;;;;;;;;;;;;5060737;28;19909;-85
2023/03/05 05:35:04;;;;;;;;;;;;;;;;;;5063866;28;19956;-84
2023/03/05 05:37:30;;;;;;;;;;;;;;;;;;5058511;28;19955;-82
2023/03/05 05:39:55;;;;;;;;;;;;;;;;;;5046193;28;19917;-84
2023/03/05 05:42:20;;;;;;;;;;;;;;;;;;5048381;28;19919;-83
2023/03/05 05:44:46;;;;;;;;;;;;;;;;;;5051727;28;19915;-84
2023/03/05 05:47:11;;;;;;;;;;;;;;;;;;5047839;28;19928;-82
2023/03/05 05:49:36;;;;;;;;;;;;;;;;;;5050089;28;19913;-84
2023/03/05 05:52:01;;;;;;;;;;;;;;;;;;5079922;28;19972;-82
2023/03/05 05:54:26;;;;;;;;;;;;;;;;;;5053409;28;19913;-84
2023/03/05 05:56:52;;;;;;;;;;;;;;;;;;5056657;28;19927;-84
2023/03/05 05:59:17;;;;;;;;;;;;;;;;;;5049019;28;20007;-84
2023/03/05 06:01:42;;;;;;;;;;;;;;;;;;5050129;28;19917;-85
2023/03/05 06:04:07;;;;;;;;;;;;;;;;;;5048925;28;19913;-84
2023/03/05 06:06:33;;;;;;;;;;;;;;;;;;5051784;28;20365;-83
2023/03/05 06:08:58;;;;;;;;;;;;;;;;;;5060647;28;21006;-84
2023/03/05 06:11:24;;;;;;;;;;;;;;;;;;5039036;28;19913;-84
2023/03/05 06:13:49;;;;;;;;;;;;;;;;;;5075985;28;19917;-84
2023/03/05 06:16:14;;;;;;;;;;;;;;;;;;5050829;28;19924;-85
2023/03/05 06:18:39;;;;;;;;;;;;;;;;;;5050198;28;19909;-85
2023/03/05 06:21:05;;;;;;;;;;;;;;;;;;5059173;28;20331;-84
2023/03/05 06:23:30;;;;;;;;;;;;;;;;;;5051187;28;19913;-86
2023/03/05 06:25:55;;;;;;;;;;;;;;;;;;5043362;28;19909;-84
2023/03/05 06:28:20;;;;;;;;;;;;;;;;;;5048302;28;19948;-85
2023/03/05 06:30:45;;;;;;;;;;;;;;;;;;5049925;28;19912;-84
2023/03/05 06:33:10;;;;;;;;;;;;;;;;;;5047442;28;20007;-83
2023/03/05 06:35:35;;;;;;;;;;;;;;;;;;5060536;28;19912;-85
2023/03/05 06:38:01;;;;;;;;;;;;;;;;;;5052332;28;19915;-85
2023/03/05 06:40:26;;;;;;;;;;;;;;;;;;5047817;28;20444;-85
2023/03/05 06:42:51;;;;;;;;;;;;;;;;;;5048123;28;20023;-85
2023/03/05 06:45:16;;;;;;;;;;;;;;;;;;5049673;28;19913;-85
2023/03/05 06:47:41;;;;;;;;;;;;;;;;;;5045108;28;19921;-86
2023/03/05 06:50:07;;;;;;;;;;;;;;;;;;5047902;28;19913;-86
2023/03/05 06:52:32;;;;;;;;;;;;;;;;;;5054836;28;19917;-85
2023/03/05 06:54:57;;;;;;;;;;;;;;;;;;5049249;28;20335;-85
2023/03/05 06:57:22;;;;;;;;;;;;;;;;;;5076364;28;20472;-82
2023/03/05 06:59:47;;;;;;;;;;;;;;;;;;5049000;28;19917;-83
2023/03/05 07:02:13;;;;;;;;;;;;;;;;;;5047933;28;19917;-83
2023/03/05 07:04:38;;;;;;;;;;;;;;;;;;5042384;28;19935;-84
2023/03/05 07:07:03;;;;;;;;;;;;;;;;;;5049657;28;20483;-84
2023/03/05 07:09:29;;;;;;;;;;;;;;;;;;5049532;28;19917;-84
2023/03/05 07:11:54;;;;;;;;;;;;;;;;;;5049281;28;19917;-80
2023/03/05 07:14:19;;;;;;;;;;;;;;;;;;5046059;28;19962;-81
2023/03/05 07:16:44;;;;;;;;;;;;;;;;;;5045955;28;20297;-81
2023/03/05 07:19:10;;;;;;;;;;;;;;;;;;5047280;28;20377;-80
2023/03/05 07:21:35;;;;;;;;;;;;;;;;;;5046388;28;20021;-80
2023/03/05 07:24:00;;;;;;;;;;;;;;;;;;5044843;28;20272;-80
2023/03/05 07:26:25;;;;;;;;;;;;;;;;;;5079372;28;19920;-80
2023/03/05 07:28:50;;;;;;;;;;;;;;;;;;5049644;28;19921;-81
2023/03/05 07:31:16;;;;;;;;;;;;;;;;;;5045263;28;20007;-82
2023/03/05 07:33:41;;;;;;;;;;;;;;;;;;5049933;28;19919;-81
2023/03/05 07:36:06;;;;;;;;;;;;;;;;;;5046658;28;20002;-82
2023/03/05 07:38:32;;;;;;;;;;;;;;;;;;5046462;28;20012;-81
2023/03/05 07:40:57;;;;;;;;;;;;;;;;;;5051532;28;19917;-81
2023/03/05 07:43:22;;;;;;;;;;;;;;;;;;5079417;28;19964;-81
2023/03/05 07:45:47;;;;;;;;;;;;;;;;;;5051769;28;19913;-81
2023/03/05 07:48:20;;;;;;;;;;;;;;;;;;5050776;28;19923;-81
2023/03/05 07:50:45;;;;;;;;;;;;;;;;;;5046233;28;20058;-80
2023/03/05 07:53:10;;;;;;;;;;;;;;;;;;5059409;28;20003;-81
2023/03/05 07:55:35;;;;;;;;;;;;;;;;;;5055661;28;19928;-81
2023/03/05 07:58:00;;;;;;;;;;;;;;;;;;5047677;28;19925;-81
2023/03/05 08:00:25;;;;;;;;;;;;;;;;;;5044419;28;19917;-81
2023/03/05 08:02:51;;;;;;;;;;;;;;;;;;5051596;28;20531;-82
2023/03/05 08:05:16;;;;;;;;;;;;;;;;;;5048243;28;20516;-80
2023/03/05 08:07:41;;;;;;;;;;;;;;;;;;5048322;28;20285;-81
2023/03/05 08:10:06;;;;;;;;;;;;;;;;;;5046583;28;20362;-80
2023/03/05 08:12:31;;;;;;;;;;;;;;;;;;5044772;28;19925;-81
2023/03/05 08:14:56;;;;;;;;;;;;;;;;;;5049489;28;20705;-82
2023/03/05 08:17:22;;;;;;;;;;;;;;;;;;5046032;28;19917;-81
2023/03/05 08:19:47;;;;;;;;;;;;;;;;;;5045747;28;19912;-82
2023/03/05 08:22:14;;;;;;;;;;;;;;;;;;5079419;28;19999;-81
2023/03/05 08:24:40;;;;;;;;;;;;;;;;;;5048577;28;19916;-83
2023/03/05 08:27:05;;;;;;;;;;;;;;;;;;5041778;28;19943;-82
2023/03/05 08:29:30;;;;;;;;;;;;;;;;;;5049097;28;20357;-83
2023/03/05 08:31:55;;;;;;;;;;;;;;;;;;5047974;28;19974;-83
2023/03/05 08:34:20;;;;;;;;;;;;;;;;;;5046540;28;19912;-83
2023/03/05 08:36:45;;;;;;;;;;;;;;;;;;5058832;28;20402;-83
2023/03/05 08:39:10;;;;;;;;;;;;;;;;;;5048433;28;19913;-83
2023/03/05 08:41:35;;;;;;;;;;;;;;;;;;5052873;28;19924;-83
2023/03/05 08:44:01;;;;;;;;;;;;;;;;;;5047855;28;20011;-82
2023/03/05 08:46:26;;;;;;;;;;;;;;;;;;5050587;28;19919;-83
2023/03/05 08:48:51;;;;;;;;;;;;;;;;;;5055712;28;19915;-84
2023/03/05 08:51:16;;;;;;;;;;;;;;;;;;5052149;28;19960;-83
2023/03/05 08:53:41;;;;;;;;;;;;;;;;;;5050925;28;19912;-82
2023/03/05 08:56:06;;;;;;;;;;;;;;;;;;5044932;28;19921;-83
2023/03/05 08:58:31;;;;;;;;;;;;;;;;;;5050468;28;19931;-82
2023/03/05 09:00:57;;;;;;;;;;;;;;;;;;5050038;28;19917;-81
2023/03/05 09:03:22;;;;;;;;;;;;;;;;;;5050017;28;19962;-82
2023/03/05 09:05:47;;;;;;;;;;;;;;;;;;5050082;28;20050;-82
2023/03/05 09:08:12;;;;;;;;;;;;;;;;;;5054000;28;19921;-85
2023/03/05 09:10:37;;;;;;;;;;;;;;;;;;5047982;28;19917;-86
2023/03/05 09:13:03;;;;;;;;;;;;;;;;;;5050751;28;19927;-85
2023/03/05 09:15:28;;;;;;;;;;;;;;;;;;5062801;28;19971;-85
2023/03/05 09:17:53;;;;;;;;;;;;;;;;;;5047390;28;20394;-86
2023/03/05 09:20:18;;;;;;;;;;;;;;;;;;5081210;28;19920;-85
2023/03/05 09:22:43;;;;;;;;;;;;;;;;;;5050012;28;20011;-85
2023/03/05 09:25:08;;;;;;;;;;;;;;;;;;5051869;28;19940;-86
2023/03/05 09:27:34;;;;;;;;;;;;;;;;;;5050325;28;20350;-84
2023/03/05 09:29:59;;;;;;;;;;;;;;;;;;5048480;28;19921;-85
2023/03/05 09:32:24;;;;;;;;;;;;;;;;;;5058652;28;19912;-87
2023/03/05 09:34:51;;;;;;;;;;;;;;;;;;5045646;28;19913;-86
2023/03/05 09:37:16;;;;;;;;;;;;;;;;;;5049778;28;20293;-86
2023/03/05 09:39:41;;;;;;;;;;;;;;;;;;5056554;28;19909;-84
2023/03/05 09:42:07;;;;;;;;;;;;;;;;;;5053584;28;20305;-86
2023/03/05 09:44:32;;;;;;;;;;;;;;;;;;5052416;28;20266;-84
2023/03/05 09:46:57;;;;;;;;;;;;;;;;;;5052281;28;19919;-85
2023/03/05 09:49:22;;;;;;;;;;;;;;;;;;5061947;28;20385;-85
2023/03/05 09:51:47;;;;;;;;;;;;;;;;;;5062521;28;19913;-84
2023/03/05 09:54:13;;;;;;;;;;;;;;;;;;5047034;28;19919;-83
2023/03/05 09:56:38;;;;;;;;;;;;;;;;;;5044941;28;19915;-84
2023/03/05 09:59:03;;;;;;;;;;;;;;;;;;5040893;28;19958;-84
2023/03/05 10:01:29;;;;;;;;;;;;;;;;;;5058418;28;19924;-84
2023/03/05 10:03:55;;;;;;;;;;;;;;;;;;5056755;28;19924;-85
2023/03/05 10:06:20;;;;;;;;;;;;;;;;;;5040401;28;20303;-85
2023/03/05 10:08:45;;;;;;;;;;;;;;;;;;5046580;28;20335;-84
2023/03/05 10:11:11;;;;;;;;;;;;;;;;;;5045079;28;19928;-83
2023/03/05 10:13:36;;;;;;;;;;;;;;;;;;5044111;28;19913;-87
2023/03/05 10:16:01;;;;;;;;;;;;;;;;;;5043878;28;19923;-87
2023/03/05 10:18:26;;;;;;;;;;;;;;;;;;5040073;28;20007;-88
2023/03/05 10:20:51;;;;;;;;;;;;;;;;;;5052240;28;19925;-88
2023/03/05 10:23:23;;;;;;;;;;;;;;;;;;5047211;28;19920;-88
2023/03/05 10:25:48;;;;;;;;;;;;;;;;;;5045658;28;19912;-88
2023/03/05 10:28:16;;;;;;;;;;;;;;;;;;5048165;28;19912;-87
2023/03/05 10:30:41;;;;;;;;;;;;;;;;;;5043508;28;19919;-86
2023/03/05 10:33:06;;;;;;;;;;;;;;;;;;5043000;28;20000;-83
2023/03/05 10:35:32;;;;;;;;;;;;;;;;;;5044181;28;19913;-85
2023/03/05 10:37:57;;;;;;;;;;;;;;;;;;5043777;28;20874;-84
2023/03/05 10:40:22;;;;;;;;;;;;;;;;;;5039987;28;20651;-83
2023/03/05 10:42:47;;;;;;;;;;;;;;;;;;5052823;28;20262;-82
2023/03/05 10:45:12;;;;;;;;;;;;;;;;;;5043719;28;19913;-84
2023/03/05 10:47:37;;;;;;;;;;;;;;;;;;5044152;28;19913;-86
2023/03/05 10:50:02;;;;;;;;;;;;;;;;;;5044454;28;19928;-84
2023/03/05 10:52:28;;;;;;;;;;;;;;;;;;5041434;28;19912;-84
2023/03/05 10:54:53;;;;;;;;;;;;;;;;;;5037677;28;20389;-87
2023/03/05 10:57:18;;;;;;;;;;;;;;;;;;5045695;28;20015;-85
2023/03/05 10:59:43;;;;;;;;;;;;;;;;;;5043310;28;19917;-83
2023/03/05 11:02:08;;;;;;;;;;;;;;;;;;5042873;28;20058;-84
2023/03/05 11:04:34;;;;;;;;;;;;;;;;;;5048338;28;19921;-83
2023/03/05 11:07:00;;;;;;;;;;;;;;;;;;5046071;28;19913;-90
2023/03/05 11:09:28;;;;;;;;;;;;;;;;;;5047952;28;19913;-84
2023/03/05 11:11:53;;;;;;;;;;;;;;;;;;5057395;28;19923;-83
2023/03/05 11:14:18;;;;;;;;;;;;;;;;;;5053904;28;19916;-88
2023/03/05 11:16:43;;;;;;;;;;;;;;;;;;5051730;28;20365;-84
2023/03/05 11:19:09;;;;;;;;;;;;;;;;;;5062301;28;20402;-83
2023/03/05 11:21:34;;;;;;;;;;;;;;;;;;5055334;28;19924;-82
2023/03/05 11:23:59;;;;;;;;;;;;;;;;;;5046352;28;19913;-82
2023/03/05 11:26:24;;;;;;;;;;;;;;;;;;5050874;28;19927;-81
2023/03/05 11:28:49;;;;;;;;;;;;;;;;;;5059430;28;20007;-84
2023/03/05 11:31:14;;;;;;;;;;;;;;;;;;5045362;28;19960;-84
2023/03/05 11:33:40;;;;;;;;;;;;;;;;;;5059801;28;19916;-81
2023/03/05 11:36:05;;;;;;;;;;;;;;;;;;5064653;28;19917;-84
2023/03/05 11:38:30;;;;;;;;;;;;;;;;;;5050190;28;20019;-82
2023/03/05 11:40:55;;;;;;;;;;;;;;;;;;5086343;28;19913;-81
2023/03/05 11:43:20;;;;;;;;;;;;;;;;;;5062472;28;19919;-84
2023/03/05 11:45:45;;;;;;;;;;;;;;;;;;5054771;28;20366;-82
2023/03/05 11:48:11;;;;;;;;;;;;;;;;;;5049992;28;19916;-83
2023/03/05 11:50:36;;;;;;;;;;;;;;;;;;5050528;28;19928;-80
2023/03/05 11:53:02;;;;;;;;;;;;;;;;;;5082936;28;20369;-82
2023/03/05 11:55:27;;;;;;;;;;;;;;;;;;5051001;28;19955;-81
2023/03/05 11:57:52;;;;;;;;;;;;;;;;;;5049864;28;19924;-82
2023/03/05 12:00:17;;;;;;;;;;;;;;;;;;5048846;28;19939;-80
2023/03/05 12:02:42;;;;;;;;;;;;;;;;;;5050440;28;19928;-84
2023/03/05 12:05:07;;;;;;;;;;;;;;;;;;5051977;28;19917;-82
2023/03/05 12:07:33;;;;;;;;;;;;;;;;;;5059865;28;19913;-84
2023/03/05 12:09:59;;;;;;;;;;;;;;;;;;5048878;28;20058;-83
2023/03/05 12:12:26;;;;;;;;;;;;;;;;;;5080505;28;20075;-83
2023/03/05 12:14:54;;;;;;;;;;;;;;;;;;5051059;28;20299;-84
2023/03/05 12:17:22;;;;;;;;;;;;;;;;;;5039122;28;19921;-84
2023/03/05 12:19:47;;;;;;;;;;;;;;;;;;5062910;28;19913;-84
2023/03/05 12:22:12;;;;;;;;;;;;;;;;;;5059628;28;19917;-85
2023/03/05 12:24:38;;;;;;;;;;;;;;;;;;5079944;28;20340;-85
2023/03/05 12:27:06;;;;;;;;;;;;;;;;;;5083172;28;19923;-85
2023/03/05 12:29:38;;;;;;;;;;;;;;;;;;5083735;28;20414;-85
2023/03/05 12:32:03;;;;;;;;;;;;;;;;;;5049207;28;19945;-85
2023/03/05 12:34:28;;;;;;;;;;;;;;;;;;5049879;28;20026;-85
2023/03/05 12:37:06;;;;;;;;;;;;;;;;;;5047966;28;19909;-85
2023/03/05 12:39:31;;;;;;;;;;;;;;;;;;5084744;28;19913;-85
2023/03/05 12:41:56;;;;;;;;;;;;;;;;;;5050625;28;19927;-84
2023/03/05 12:44:22;;;;;;;;;;;;;;;;;;5049829;28;19913;-84
2023/03/05 12:46:48;;;;;;;;;;;;;;;;;;5058827;28;19920;-84
2023/03/05 12:49:13;;;;;;;;;;;;;;;;;;5086020;28;19919;-83
2023/03/05 12:51:38;;;;;;;;;;;;;;;;;;5075059;28;19986;-86
2023/03/05 12:54:03;;;;;;;;;;;;;;;;;;5041302;28;19935;-83
2023/03/05 12:56:28;;;;;;;;;;;;;;;;;;5045190;28;19917;-82
2023/03/05 12:58:53;;;;;;;;;;;;;;;;;;5078784;28;19924;-83
2023/03/05 13:01:19;;;;;;;;;;;;;;;;;;5044401;28;20412;-80
2023/03/05 13:03:44;;;;;;;;;;;;;;;;;;5044695;28;19920;-82
2023/03/05 13:06:09;;;;;;;;;;;;;;;;;;5047246;28;20019;-81
2023/03/05 13:08:34;;;;;;;;;;;;;;;;;;5048541;28;19916;-80
2023/03/05 13:11:00;;;;;;;;;;;;;;;;;;5041402;28;19913;-83
2023/03/05 13:13:31;;;;;;;;;;;;;;;;;;5040743;28;19912;-84
2023/03/05 13:15:56;;;;;;;;;;;;;;;;;;5044309;28;19917;-85
2023/03/05 13:18:21;;;;;;;;;;;;;;;;;;5046626;28;20430;-86
2023/03/05 13:20:50;;;;;;;;;;;;;;;;;;5042971;28;19921;-85
2023/03/05 13:23:17;;;;;;;;;;;;;;;;;;5043155;28;19913;-83
2023/03/05 13:25:42;;;;;;;;;;;;;;;;;;5060527;28;19982;-83
2023/03/05 13:28:07;;;;;;;;;;;;;;;;;;5046974;28;19913;-83
2023/03/05 13:30:32;;;;;;;;;;;;;;;;;;5042297;28;19916;-81
2023/03/05 13:32:57;;;;;;;;;;;;;;;;;;5055509;28;19970;-83
2023/03/05 13:35:22;;;;;;;;;;;;;;;;;;5040967;28;19978;-82
2023/03/05 13:37:48;;;;;;;;;;;;;;;;;;5046988;28;19920;-82
2023/03/05 13:40:13;;;;;;;;;;;;;;;;;;5043519;28;19925;-80
2023/03/05 13:42:38;;;;;;;;;;;;;;;;;;5073558;28;20290;-80
2023/03/05 13:45:04;;;;;;;;;;;;;;;;;;5042787;28;20354;-81
2023/03/05 13:47:29;;;;;;;;;;;;;;;;;;5041800;28;19928;-84
2023/03/05 13:49:54;;;;;;;;;;;;;;;;;;5047872;28;19913;-81
2023/03/05 13:52:19;;;;;;;;;;;;;;;;;;5050150;28;20355;-81
2023/03/05 13:54:44;;;;;;;;;;;;;;;;;;5049920;28;20953;-81
2023/03/05 13:57:09;;;;;;;;;;;;;;;;;;5041855;28;19967;-83
2023/03/05 13:59:35;;;;;;;;;;;;;;;;;;5050752;28;19975;-82
2023/03/05 14:02:02;;;;;;;;;;;;;;;;;;5046030;28;21629;-82
2023/03/05 14:04:27;;;;;;;;;;;;;;;;;;5043846;28;19912;-82
2023/03/05 14:06:52;;;;;;;;;;;;;;;;;;5042413;28;19920;-81
2023/03/05 14:09:17;;;;;;;;;;;;;;;;;;5046703;28;19967;-83
2023/03/05 14:11:42;;;;;;;;;;;;;;;;;;5079934;28;19912;-82
2023/03/05 14:14:08;;;;;;;;;;;;;;;;;;5048873;28;19913;-82
2023/03/05 14:16:33;;;;;;;;;;;;;;;;;;5046862;28;19913;-81
2023/03/05 14:18:58;;;;;;;;;;;;;;;;;;5042662;28;19951;-81
2023/03/05 14:21:23;;;;;;;;;;;;;;;;;;5041810;28;19921;-83
2023/03/05 14:23:50;;;;;;;;;;;;;;;;;;5053634;28;20429;-82
2023/03/05 14:26:15;;;;;;;;;;;;;;;;;;5045062;28;19913;-85
2023/03/05 14:28:40;;;;;;;;;;;;;;;;;;5047228;28;19992;-87
2023/03/05 14:31:06;;;;;;;;;;;;;;;;;;5047994;28;19917;-82
2023/03/05 14:33:33;;;;;;;;;;;;;;;;;;5047474;28;19912;-85
2023/03/05 14:35:58;;;;;;;;;;;;;;;;;;5076549;28;19921;-82
2023/03/05 14:38:24;;;;;;;;;;;;;;;;;;5051447;28;19913;-84
2023/03/05 14:40:49;;;;;;;;;;;;;;;;;;5045178;28;19974;-85
2023/03/05 14:43:14;;;;;;;;;;;;;;;;;;5041382;28;19917;-85
2023/03/05 14:45:39;;;;;;;;;;;;;;;;;;5042342;28;19924;-86
2023/03/05 14:48:05;;;;;;;;;;;;;;;;;;5073254;28;19921;-86
2023/03/05 14:50:33;;;;;;;;;;;;;;;;;;5043362;28;20000;-86
2023/03/05 14:52:58;;;;;;;;;;;;;;;;;;5044588;28;19913;-87
2023/03/05 14:55:29;;;;;;;;;;;;;;;;;;5043608;28;19917;-86
2023/03/05 14:57:54;;;;;;;;;;;;;;;;;;5043288;28;19920;-87
2023/03/05 15:00:21;;;;;;;;;;;;;;;;;;5042629;28;19928;-87
2023/03/05 15:03:02;;;;;;;;;;;;;;;;;;5043950;28;19966;-85
2023/03/05 15:05:33;;;;;;;;;;;;;;;;;;5044192;28;19923;-87
2023/03/05 15:08:17;;;;;;;;;;;;;;;;;;5065129;28;20000;-87
2023/03/05 15:11:03;;;;;;;;;;;;;;;;;;5075926;28;19913;-86
2023/03/05 15:13:50;;;;;;;;;;;;;;;;;;;;;
2023/03/05 15:16:16;;;;;;;;;;;;;;;;;;5047092;28;19927;-85
2023/03/05 15:18:41;;;;;;;;;;;;;;;;;;5047620;28;20548;-86
2023/03/05 15:21:22;;;;;;;;;;;;;;;;;;5044968;28;19924;-87
2023/03/05 15:23:50;;;;;;;;;;;;;;;;;;5047333;28;19940;-84
2023/03/05 15:26:31;;;;;;;;;;;;;;;;;;5081780;28;19917;-88
2023/03/05 15:29:05;;;;;;;;;;;;;;;;;;5050688;28;20384;-88
2023/03/05 15:31:37;;;;;;;;;;;;;;;;;;5057790;28;19992;-86
2023/03/05 15:40:12;;;;;;;;;;;;;;;;;;5038614;28;19917;-83
2023/03/05 15:45:26;;;;;;;;;;;;;;;;;;5017417;28;19920;-83
2023/03/05 15:47:57;;;;;;;;;;;;;;;;;;5020906;28;20352;-86
2023/03/05 15:50:22;;;;;;;;;;;;;;;;;;5021811;28;19919;-87
2023/03/05 15:52:58;;;;;;;;;;;;;;;;;;;;;
2023/03/05 15:55:26;;;;;;;;;;;;;;;;;;5026820;28;19913;-87
2023/03/05 15:57:51;;;;;;;;;;;;;;;;;;5046092;28;19923;-88
2023/03/05 16:00:19;;;;;;;;;;;;;;;;;;5021568;28;20011;-87
2023/03/05 16:02:49;;;;;;;;;;;;;;;;;;5030574;28;19975;-85
2023/03/05 16:11:16;;;;;;;;;;;;;;;;;;4936982;29;19983;-89
2023/03/05 16:13:41;;;;;;;;;;;;;;;;;;4928968;29;20372;-87
2023/03/05 16:16:09;;;;;;;;;;;;;;;;;;4931815;29;19930;-87
2023/03/05 16:18:47;;;;;;;;;;;;;;;;;;4917674;29;20379;-91
2023/03/05 16:21:13;;;;;;;;;;;;;;;;;;4915407;29;19926;-87
2023/03/05 16:23:41;;;;;;;;;;;;;;;;;;4950641;29;19914;-88
2023/03/05 16:26:09;;;;;;;;;;;;;;;;;;4934159;29;20404;-88
2023/03/05 16:28:34;;;;;;;;;;;;;;;;;;4930261;29;19918;-87
2023/03/05 16:31:02;;;;;;;;;;;;;;;;;;4931340;29;19922;-87
